createdAt,value
2023-04-01T00:01:18.114Z,1.42
2023-04-01T00:03:48.099Z,1.23
2023-04-01T00:06:16.684Z,1.10
2023-04-01T00:08:43.262Z,1.42
2023-04-01T00:11:09.492Z,1.60
2023-04-01T00:13:36.611Z,1.50
2023-04-01T00:16:13.488Z,1.38
2023-04-01T00:18:47.882Z,1.20
2023-04-01T00:21:14.183Z,1.55
2023-04-01T00:23:40.407Z,1.30
2023-04-01T00:26:11.557Z,1.35
2023-04-01T00:28:40.253Z,1.25
2023-04-01T00:31:07.940Z,1.13
2023-04-01T00:33:34.794Z,1.20
2023-04-01T00:36:09.132Z,1.60
2023-04-01T00:38:37.685Z,1.48
2023-04-01T00:41:04.014Z,1.83
2023-04-01T00:43:30.824Z,1.50
2023-04-01T00:45:59.798Z,1.42
2023-04-01T00:48:33.362Z,1.55
2023-04-01T00:51:12.816Z,1.30
2023-04-01T00:53:42.342Z,1.20
2023-04-01T00:56:13.669Z,1.50
2023-04-01T00:58:43.675Z,1.63
2023-04-01T01:01:10.745Z,1.55
2023-04-01T01:03:39.618Z,1.35
2023-04-01T01:06:22.330Z,1.60
2023-04-01T01:09:10.884Z,1.73
2023-04-01T01:11:43.679Z,1.55
2023-04-01T01:14:50.828Z,1.30
2023-04-01T01:17:44.009Z,1.40
2023-04-01T01:20:26.436Z,1.73
2023-04-01T01:23:10.673Z,1.65
2023-04-01T01:25:45.489Z,1.60
2023-04-01T01:28:30.175Z,1.55
2023-04-01T01:31:02.228Z,1.25
2023-04-01T01:33:46.560Z,1.13
2023-04-01T01:36:17.974Z,1.42
2023-04-01T01:38:45.182Z,1.30
2023-04-01T01:41:13.394Z,1.40
2023-04-01T01:43:45.289Z,1.50
2023-04-01T01:46:15.210Z,1.50
2023-04-01T01:48:43.071Z,1.40
2023-04-01T01:51:12.122Z,1.55
2023-04-01T01:53:38.555Z,1.40
2023-04-01T01:56:05.035Z,1.15
2023-04-01T01:58:36.332Z,1.60
2023-04-01T02:01:08.100Z,1.33
2023-04-01T02:03:37.508Z,1.23
2023-04-01T02:06:06.847Z,1.17
2023-04-01T02:08:55.795Z,1.27
2023-04-01T02:11:31.285Z,1.20
2023-04-01T02:14:04.105Z,1.40
2023-04-01T02:16:37.119Z,1.35
2023-04-01T02:19:13.076Z,1.40
2023-04-01T02:21:40.758Z,1.25
2023-04-01T02:24:09.935Z,0.90
2023-04-01T02:26:36.337Z,1.30
2023-04-01T02:29:04.297Z,1.02
2023-04-01T02:31:31.396Z,1.23
2023-04-01T02:33:58.229Z,1.35
2023-04-01T02:36:24.465Z,1.58
2023-04-01T02:38:51.821Z,1.45
2023-04-01T02:41:19.842Z,1.30
2023-04-01T02:43:45.826Z,1.17
2023-04-01T02:46:12.177Z,1.75
2023-04-01T02:48:38.503Z,1.08
2023-04-01T02:51:04.600Z,1.38
2023-04-01T02:53:30.790Z,1.75
2023-04-01T02:56:00.119Z,1.60
2023-04-01T02:58:26.227Z,1.55
2023-04-01T03:00:52.619Z,1.40
2023-04-01T03:03:19.669Z,1.48
2023-04-01T03:05:46.045Z,1.55
2023-04-01T03:08:15.554Z,1.40
2023-04-01T03:10:44.122Z,1.40
2023-04-01T03:13:10.199Z,1.52
2023-04-01T03:15:36.566Z,1.70
2023-04-01T03:18:06.037Z,1.70
2023-04-01T03:20:32.185Z,1.77
2023-04-01T03:22:58.258Z,1.65
2023-04-01T03:25:24.745Z,1.48
2023-04-01T03:27:50.930Z,1.10
2023-04-01T03:30:17.225Z,1.00
2023-04-01T03:32:46.174Z,1.60
2023-04-01T03:35:12.260Z,1.58
2023-04-01T03:37:38.767Z,1.95
2023-04-01T03:40:11.642Z,1.48
2023-04-01T03:42:38.400Z,1.65
2023-04-01T03:45:05.738Z,1.40
2023-04-01T03:50:00.612Z,1.73
2023-04-01T03:52:26.828Z,1.60
2023-04-01T03:54:53.010Z,1.77
2023-04-01T03:57:19.122Z,1.92
2023-04-01T03:59:45.429Z,1.58
2023-04-01T04:02:11.639Z,1.63
2023-04-01T04:04:37.765Z,2.05
2023-04-01T04:07:03.774Z,1.38
2023-04-01T04:09:31.709Z,1.73
2023-04-01T04:12:01.072Z,1.60
2023-04-01T04:14:27.567Z,1.65
2023-04-01T04:16:53.668Z,1.40
2023-04-01T04:19:20.970Z,1.40
2023-04-01T04:21:47.002Z,1.58
2023-04-01T04:24:13.052Z,1.52
2023-04-01T04:26:42.227Z,1.20
2023-04-01T04:29:12.842Z,1.45
2023-04-01T04:31:39.037Z,1.38
2023-04-01T04:34:05.348Z,1.30
2023-04-01T04:36:31.586Z,1.67
2023-04-01T04:38:58.597Z,1.52
2023-04-01T04:41:27.216Z,2.00
2023-04-01T04:43:57.527Z,1.55
2023-04-01T04:46:23.935Z,1.80
2023-04-01T04:48:50.241Z,1.42
2023-04-01T04:51:18.475Z,1.38
2023-04-01T04:53:45.105Z,1.90
2023-04-01T04:56:11.206Z,2.20
2023-04-01T04:58:37.792Z,2.25
2023-04-01T05:01:16.643Z,1.88
2023-04-01T05:03:42.754Z,2.00
2023-04-01T05:06:12.084Z,2.20
2023-04-01T05:08:41.774Z,2.00
2023-04-01T05:13:40.018Z,2.25
2023-04-01T05:16:19.926Z,1.90
2023-04-01T05:18:47.012Z,1.77
2023-04-01T05:21:14.620Z,2.10
2023-04-01T05:23:41.763Z,3.53
2023-04-01T05:26:10.758Z,1.92
2023-04-01T05:28:36.895Z,2.30
2023-04-01T05:31:04.018Z,1.73
2023-04-01T05:33:30.811Z,1.77
2023-04-01T05:35:57.430Z,2.13
2023-04-01T05:38:26.340Z,1.90
2023-04-01T05:40:59.684Z,1.70
2023-04-01T05:43:30.443Z,1.80
2023-04-01T05:45:59.743Z,1.83
2023-04-01T05:48:25.923Z,1.88
2023-04-01T05:50:53.660Z,1.70
2023-04-01T05:53:19.916Z,1.60
2023-04-01T05:55:45.968Z,2.20
2023-04-01T05:58:13.788Z,1.85
2023-04-01T06:00:42.955Z,1.75
2023-04-01T06:03:11.965Z,2.17
2023-04-01T06:05:46.456Z,2.33
2023-04-01T06:08:20.352Z,2.28
2023-04-01T06:11:02.442Z,2.13
2023-04-01T06:13:42.796Z,2.30
2023-04-01T06:16:50.193Z,1.75
2023-04-01T06:19:26.090Z,2.10
2023-04-01T06:22:02.042Z,1.65
2023-04-01T06:24:43.677Z,1.92
2023-04-01T06:27:24.550Z,1.95
2023-04-01T06:29:59.521Z,1.73
2023-04-01T06:33:08.456Z,2.28
2023-04-01T06:35:57.638Z,2.33
2023-04-01T06:39:04.070Z,2.20
2023-04-01T06:41:36.156Z,1.75
2023-04-01T06:44:11.389Z,2.10
2023-04-01T06:46:47.371Z,2.10
2023-04-01T06:49:30.188Z,1.90
2023-04-01T06:52:13.607Z,1.80
2023-04-01T06:54:46.455Z,2.13
2023-04-01T06:57:44.503Z,2.30
2023-04-01T07:00:23.995Z,1.48
2023-04-01T07:02:56.468Z,1.70
2023-04-01T07:05:27.270Z,1.83
2023-04-01T07:07:59.069Z,1.60
2023-04-01T07:10:42.514Z,1.83
2023-04-01T07:13:15.731Z,1.60
2023-04-01T07:18:21.566Z,2.20
2023-04-01T07:20:47.674Z,2.22
2023-04-01T07:23:37.966Z,1.60
2023-04-01T07:26:22.020Z,2.33
2023-04-01T07:28:55.097Z,1.67
2023-04-01T07:31:21.143Z,1.73
2023-04-01T07:34:03.287Z,1.80
2023-04-01T07:36:44.267Z,1.73
2023-04-01T07:39:29.896Z,1.60
2023-04-01T07:42:27.543Z,1.70
2023-04-01T07:44:58.106Z,1.88
2023-04-01T07:47:34.562Z,1.63
2023-04-01T07:50:19.596Z,1.67
2023-04-01T07:52:56.840Z,1.60
2023-04-01T07:55:46.888Z,1.52
2023-04-01T07:58:38.389Z,1.90
2023-04-01T08:01:42.222Z,1.75
2023-04-01T08:04:26.427Z,2.03
2023-04-01T08:07:02.471Z,1.45
2023-04-01T08:09:31.365Z,1.67
2023-04-01T08:12:28.212Z,1.67
2023-04-01T08:15:03.649Z,2.00
2023-04-01T08:17:54.654Z,1.85
2023-04-01T08:20:34.666Z,1.70
2023-04-01T08:23:09.153Z,1.88
2023-04-01T08:25:40.506Z,1.60
2023-04-01T08:28:47.406Z,2.08
2023-04-01T08:31:26.238Z,2.00
2023-04-01T08:33:55.637Z,1.77
2023-04-01T08:36:29.216Z,1.58
2023-04-01T08:39:24.449Z,1.60
2023-04-01T08:42:33.067Z,1.10
2023-04-01T08:45:19.378Z,1.15
2023-04-01T08:48:19.723Z,1.20
2023-04-01T08:50:51.713Z,1.42
2023-04-01T08:53:35.786Z,1.42
2023-04-01T08:56:20.597Z,1.15
2023-04-01T08:59:27.701Z,1.35
2023-04-01T09:02:24.987Z,1.20
2023-04-01T09:05:16.035Z,1.52
2023-04-01T09:08:27.146Z,1.98
2023-04-01T09:11:15.694Z,2.00
2023-04-01T09:13:59.883Z,2.55
2023-04-01T09:17:23.082Z,3.08
2023-04-01T09:20:07.246Z,3.08
2023-04-01T09:22:54.264Z,3.58
2023-04-01T09:28:35.450Z,3.50
2023-04-01T09:31:11.610Z,4.20
2023-04-01T09:33:38.415Z,3.92
2023-04-01T09:36:08.337Z,3.88
2023-04-01T09:38:50.667Z,4.22
2023-04-01T09:41:33.784Z,5.22
2023-04-01T09:44:16.310Z,6.80
2023-04-01T09:46:45.635Z,6.18
2023-04-01T09:49:33.231Z,6.45
2023-04-01T09:52:11.121Z,6.35
2023-04-01T09:55:00.833Z,6.65
2023-04-01T09:58:05.342Z,7.20
2023-04-01T10:01:00.520Z,8.57
2023-04-01T10:03:52.524Z,7.95
2023-04-01T10:06:57.197Z,9.07
2023-04-01T10:09:48.133Z,8.82
2023-04-01T10:12:16.037Z,9.90
2023-04-01T10:15:01.035Z,9.02
2023-04-01T10:17:48.339Z,8.63
2023-04-01T10:20:23.291Z,8.55
2023-04-01T10:23:14.068Z,8.25
2023-04-01T10:26:24.780Z,9.63
2023-04-01T10:29:16.559Z,9.25
2023-04-01T10:31:42.621Z,8.43
2023-04-01T10:34:30.368Z,9.45
2023-04-01T10:37:34.793Z,8.25
2023-04-01T10:40:11.350Z,7.18
2023-04-01T10:43:11.367Z,7.78
2023-04-01T10:46:16.825Z,7.03
2023-04-01T10:49:04.239Z,7.10
2023-04-01T10:51:52.300Z,6.40
2023-04-01T10:54:22.541Z,6.18
2023-04-01T10:57:03.286Z,6.20
2023-04-01T10:59:44.263Z,5.53
2023-04-01T11:02:32.675Z,6.43
2023-04-01T11:05:04.925Z,6.45
2023-04-01T11:07:33.238Z,6.65
2023-04-01T11:10:05.105Z,7.03
2023-04-01T11:12:48.880Z,6.40
2023-04-01T11:15:43.959Z,6.40
2023-04-01T11:18:24.837Z,5.88
2023-04-01T11:21:06.226Z,6.57
2023-04-01T11:24:03.976Z,6.25
2023-04-01T11:26:33.578Z,6.07
2023-04-01T11:29:36.576Z,6.18
2023-04-01T11:32:18.924Z,5.78
2023-04-01T11:35:06.353Z,5.88
2023-04-01T11:38:01.275Z,5.30
2023-04-01T11:40:46.092Z,5.28
2023-04-01T11:43:33.942Z,5.68
2023-04-01T11:46:13.197Z,5.65
2023-04-01T11:49:10.567Z,6.22
2023-04-01T11:52:09.377Z,5.20
2023-04-01T11:54:58.323Z,6.07
2023-04-01T11:58:12.804Z,5.95
2023-04-01T12:00:57.391Z,5.80
2023-04-01T12:04:02.182Z,6.90
2023-04-01T12:06:37.640Z,6.90
2023-04-01T12:09:25.964Z,7.30
2023-04-01T12:12:25.391Z,7.25
2023-04-01T12:15:28.476Z,7.45
2023-04-01T12:18:12.192Z,7.47
2023-04-01T12:20:46.119Z,6.93
2023-04-01T12:23:15.105Z,7.75
2023-04-01T12:26:19.245Z,7.13
2023-04-01T12:29:23.899Z,7.15
2023-04-01T12:32:21.263Z,7.55
2023-04-01T12:34:58.829Z,6.38
2023-04-01T12:37:42.156Z,7.80
2023-04-01T12:40:39.910Z,8.07
2023-04-01T12:43:24.926Z,8.13
2023-04-01T12:46:10.314Z,8.05
2023-04-01T12:48:55.902Z,7.18
2023-04-01T12:52:00.968Z,5.47
2023-04-01T12:55:02.182Z,7.05
2023-04-01T12:57:49.114Z,6.32
2023-04-01T13:00:39.389Z,7.10
2023-04-01T13:03:33.182Z,6.90
2023-04-01T13:06:20.441Z,6.32
2023-04-01T13:09:02.554Z,7.65
2023-04-01T13:11:55.287Z,7.60
2023-04-01T13:14:46.214Z,8.18
2023-04-01T13:17:27.943Z,8.57
2023-04-01T13:20:06.046Z,8.57
2023-04-01T13:25:41.237Z,8.63
2023-04-01T13:28:26.357Z,9.85
2023-04-01T13:31:11.104Z,8.50
2023-04-01T13:33:52.272Z,8.70
2023-04-01T13:36:22.087Z,8.68
2023-04-01T13:38:55.911Z,8.13
2023-04-01T13:41:41.760Z,7.60
2023-04-01T13:44:28.114Z,7.28
2023-04-01T13:46:57.317Z,7.65
2023-04-01T13:49:32.401Z,6.45
2023-04-01T13:52:15.072Z,7.43
2023-04-01T13:54:50.039Z,7.63
2023-04-01T13:57:38.545Z,6.05
2023-04-01T14:00:52.328Z,6.47
2023-04-01T14:03:51.050Z,5.22
2023-04-01T14:06:36.887Z,3.15
2023-04-01T14:09:06.212Z,3.70
2023-04-01T14:11:57.243Z,3.80
2023-04-01T14:15:01.061Z,3.22
2023-04-01T14:17:48.808Z,3.42
2023-04-01T14:20:31.700Z,2.83
2023-04-01T14:23:18.597Z,2.63
2023-04-01T14:26:07.269Z,2.53
2023-04-01T14:28:39.013Z,2.65
2023-04-01T14:31:17.560Z,2.83
2023-04-01T14:34:17.427Z,3.10
2023-04-01T14:37:17.284Z,3.20
2023-04-01T14:40:10.828Z,3.00
2023-04-01T14:43:12.371Z,2.60
2023-04-01T14:46:07.947Z,2.53
2023-04-01T14:48:39.411Z,2.90
2023-04-01T14:51:28.838Z,3.08
2023-04-01T14:54:07.061Z,2.45
2023-04-01T14:56:42.769Z,3.10
2023-04-01T14:59:30.479Z,2.90
2023-04-01T15:02:04.246Z,2.63
2023-04-01T15:04:36.469Z,2.47
2023-04-01T15:07:45.212Z,3.00
2023-04-01T15:10:43.089Z,2.75
2023-04-01T15:13:34.918Z,2.35
2023-04-01T15:16:29.264Z,1.73
2023-04-01T15:19:31.220Z,2.50
2023-04-01T15:22:22.384Z,2.10
2023-04-01T15:25:02.295Z,2.58
2023-04-01T15:28:02.378Z,2.40
2023-04-01T15:30:38.433Z,2.70
2023-04-01T15:33:12.303Z,2.85
2023-04-01T15:35:59.428Z,3.40
2023-04-01T15:38:47.152Z,3.03
2023-04-01T15:41:30.768Z,2.67
2023-04-01T15:43:57.061Z,3.10
2023-04-01T15:46:45.626Z,2.50
2023-04-01T15:49:21.353Z,3.83
2023-04-01T15:52:03.496Z,3.83
2023-04-01T15:54:56.815Z,4.15
2023-04-01T15:57:54.964Z,4.68
2023-04-01T16:00:30.953Z,3.58
2023-04-01T16:03:10.961Z,3.90
2023-04-01T16:06:12.824Z,2.80
2023-04-01T16:08:59.008Z,4.00
2023-04-01T16:11:47.730Z,3.65
2023-04-01T16:14:48.941Z,3.53
2023-04-01T16:17:17.989Z,3.20
2023-04-01T16:19:57.063Z,3.33
2023-04-01T16:22:34.076Z,4.18
2023-04-01T16:25:23.821Z,3.55
2023-04-01T16:28:08.526Z,3.30
2023-04-01T16:30:35.406Z,2.75
2023-04-01T16:33:05.957Z,3.38
2023-04-01T16:35:41.842Z,2.92
2023-04-01T16:38:21.284Z,2.90
2023-04-01T16:41:01.882Z,2.70
2023-04-01T16:43:48.777Z,3.67
2023-04-01T16:46:42.651Z,3.10
2023-04-01T16:49:11.518Z,2.67
2023-04-01T16:51:48.122Z,3.05
2023-04-01T16:54:32.593Z,2.97
2023-04-01T16:57:10.724Z,2.92
2023-04-01T16:59:41.349Z,2.78
2023-04-01T17:02:07.475Z,3.35
2023-04-01T17:04:42.048Z,3.10
2023-04-01T17:07:22.959Z,3.60
2023-04-01T17:10:17.342Z,2.65
2023-04-01T17:13:08.858Z,3.08
2023-04-01T17:16:01.200Z,3.30
2023-04-01T17:18:53.996Z,3.10
2023-04-01T17:21:31.224Z,1.73
2023-04-01T17:24:11.195Z,2.85
2023-04-01T17:27:01.055Z,2.72
2023-04-01T17:29:59.553Z,2.47
2023-04-01T17:32:50.683Z,2.08
2023-04-01T17:35:41.035Z,2.78
2023-04-01T17:38:18.412Z,2.67
2023-04-01T17:41:01.608Z,3.17
2023-04-01T17:43:50.158Z,3.03
2023-04-01T17:46:31.589Z,2.90
2023-04-01T17:49:23.348Z,2.65
2023-04-01T17:51:49.669Z,3.08
2023-04-01T17:54:25.044Z,2.60
2023-04-01T17:57:06.044Z,3.03
2023-04-01T18:00:00.925Z,3.05
2023-04-01T18:02:45.252Z,2.38
2023-04-01T18:05:25.794Z,3.25
2023-04-01T18:07:54.506Z,3.33
2023-04-01T18:10:24.138Z,2.90
2023-04-01T18:13:27.841Z,2.38
2023-04-01T18:15:53.837Z,3.17
2023-04-01T18:18:57.568Z,3.00
2023-04-01T18:21:46.198Z,2.58
2023-04-01T18:24:39.602Z,2.80
2023-04-01T18:27:18.996Z,2.97
2023-04-01T18:29:54.590Z,2.20
2023-04-01T18:32:29.411Z,2.85
2023-04-01T18:35:18.808Z,2.47
2023-04-01T18:38:30.017Z,2.75
2023-04-01T18:41:37.957Z,2.67
2023-04-01T18:44:12.575Z,3.53
2023-04-01T18:46:41.583Z,3.38
2023-04-01T18:49:26.754Z,3.47
2023-04-01T18:52:01.108Z,3.20
2023-04-01T18:54:30.900Z,2.95
2023-04-01T18:57:16.838Z,3.22
2023-04-01T18:59:55.016Z,3.40
2023-04-01T19:02:30.475Z,3.00
2023-04-01T19:05:14.732Z,3.38
2023-04-01T19:07:49.986Z,3.95
2023-04-01T19:10:34.641Z,3.75
2023-04-01T19:13:12.702Z,3.55
2023-04-01T19:15:51.686Z,3.83
2023-04-01T19:18:37.953Z,3.70
2023-04-01T19:21:23.026Z,4.32
2023-04-01T19:24:24.690Z,4.10
2023-04-01T19:27:07.644Z,4.60
2023-04-01T19:29:58.383Z,4.15
2023-04-01T19:33:01.283Z,3.90
2023-04-01T19:35:54.128Z,4.00
2023-04-01T19:38:36.315Z,3.83
2023-04-01T19:41:31.832Z,4.32
2023-04-01T19:44:05.370Z,4.63
2023-04-01T19:46:40.799Z,4.35
2023-04-01T19:49:22.143Z,5.03
2023-04-01T19:52:10.142Z,5.50
2023-04-01T19:54:57.140Z,5.10
2023-04-01T19:57:50.960Z,4.55
2023-04-01T20:00:26.855Z,5.18
2023-04-01T20:03:20.238Z,6.10
2023-04-01T20:05:57.685Z,4.30
2023-04-01T20:08:26.382Z,4.35
2023-04-01T20:11:24.032Z,5.00
2023-04-01T20:14:02.851Z,3.28
2023-04-01T20:16:47.638Z,4.30
2023-04-01T20:19:14.017Z,4.90
2023-04-01T20:21:40.263Z,4.80
2023-04-01T20:24:22.340Z,5.38
2023-04-01T20:27:08.236Z,5.80
2023-04-01T20:30:00.738Z,3.65
2023-04-01T20:32:41.614Z,4.28
2023-04-01T20:35:24.342Z,4.85
2023-04-01T20:37:55.305Z,5.95
2023-04-01T20:40:27.063Z,5.18
2023-04-01T20:43:17.013Z,6.50
2023-04-01T20:45:59.367Z,4.20
2023-04-01T20:48:43.635Z,5.80
2023-04-01T20:51:26.269Z,6.45
2023-04-01T20:54:21.256Z,6.63
2023-04-01T20:57:02.150Z,4.35
2023-04-01T20:59:57.297Z,4.47
2023-04-01T21:02:48.514Z,4.57
2023-04-01T21:05:36.318Z,7.03
2023-04-01T21:08:20.834Z,5.80
2023-04-01T21:10:50.002Z,5.95
2023-04-01T21:13:33.218Z,6.25
2023-04-01T21:16:11.092Z,5.20
2023-04-01T21:18:49.165Z,4.45
2023-04-01T21:21:46.815Z,6.82
2023-04-01T21:24:13.029Z,4.88
2023-04-01T21:26:54.169Z,5.25
2023-04-01T21:29:42.711Z,5.63
2023-04-01T21:32:28.613Z,3.75
2023-04-01T21:35:07.585Z,5.30
2023-04-01T21:38:00.338Z,4.65
2023-04-01T21:40:54.495Z,4.65
2023-04-01T21:43:36.982Z,4.95
2023-04-01T21:46:28.011Z,5.18
2023-04-01T21:49:21.183Z,4.72
2023-04-01T21:52:11.626Z,4.10
2023-04-01T21:54:58.839Z,5.50
2023-04-01T21:58:09.961Z,4.95
2023-04-01T22:00:55.184Z,3.20
2023-04-01T22:03:35.380Z,3.17
2023-04-01T22:06:10.191Z,4.55
2023-04-01T22:08:44.986Z,4.53
2023-04-01T22:11:50.111Z,4.00
2023-04-01T22:14:30.605Z,3.63
2023-04-01T22:17:28.221Z,3.65
2023-04-01T22:20:22.882Z,3.90
2023-04-01T22:23:09.308Z,3.80
2023-04-01T22:25:44.923Z,3.67
2023-04-01T22:28:19.642Z,2.45
2023-04-01T22:31:01.951Z,3.38
2023-04-01T22:33:39.966Z,3.72
2023-04-01T22:36:28.305Z,4.25
2023-04-01T22:39:01.504Z,2.85
2023-04-01T22:41:52.924Z,3.80
2023-04-01T22:44:44.948Z,3.30
2023-04-01T22:47:15.780Z,2.83
2023-04-01T22:50:00.739Z,3.20
2023-04-01T22:52:35.196Z,2.65
2023-04-01T22:55:05.890Z,2.55
2023-04-01T22:57:45.534Z,3.20
2023-04-01T23:00:15.656Z,3.40
2023-04-01T23:02:56.144Z,3.13
2023-04-01T23:05:25.453Z,3.33
2023-04-01T23:08:34.467Z,3.05
2023-04-01T23:11:07.341Z,4.18
2023-04-01T23:13:48.920Z,3.63
2023-04-01T23:16:16.316Z,2.83
2023-04-01T23:18:47.391Z,3.10
2023-04-01T23:21:23.587Z,3.00
2023-04-01T23:24:20.937Z,3.42
2023-04-01T23:27:07.922Z,3.00
2023-04-01T23:29:37.293Z,3.08
2023-04-01T23:32:04.675Z,3.10
2023-04-01T23:34:33.811Z,3.63
2023-04-01T23:37:05.009Z,3.50
2023-04-01T23:39:38.600Z,2.78
2023-04-01T23:42:09.331Z,2.88
2023-04-01T23:44:36.175Z,3.20
2023-04-01T23:47:03.920Z,2.80
2023-04-01T23:52:45.629Z,3.15
2023-04-01T23:55:11.752Z,2.72
2023-04-01T23:57:38.959Z,2.38
